Time;durP1;ratioP1;P1;durP2;ratioP2;P2;SDS_P1;SDS_P2;PMS_P1;PMS_P2;Temp;Humidity;BMP_temperature;BMP_pressure;BME280_temperature;BME280_humidity;BME280_pressure;Samples;Min_cycle;Max_cycle;Signal;HPM_P1;HPM_P2
2023/04/29 00:01:04;;;;;;;;;;;;;;;4.70;100.00;99904.28;5054218;28;834;-63
2023/04/29 00:03:33;;;;;;;;;;;;;;;4.68;100.00;99910.09;5054029;28;1890;-63
2023/04/29 00:06:00;;;;;;;;;;;;;;;4.70;100.00;99901.53;5054143;28;951;-63
2023/04/29 00:08:27;;;;;;;;;;;;;;;4.79;100.00;99904.06;5054088;28;913;-63
2023/04/29 00:10:54;;;;;;;;;;;;;;;4.85;100.00;99908.09;5053896;28;1193;-64
2023/04/29 00:13:21;;;;;;;;;;;;;;;4.81;100.00;99909.97;5053898;28;814;-65
2023/04/29 00:15:47;;;;;;;;;;;;;;;4.78;100.00;99906.00;5052602;28;1330;-63
2023/04/29 00:18:14;;;;;;;;;;;;;;;4.67;100.00;99904.97;5053824;28;834;-64
2023/04/29 00:20:42;;;;;;;;;;;;;;;4.20;100.00;99906.72;5053785;28;826;-63
2023/04/29 00:23:08;;;;;;;;;;;;;;;3.70;100.00;99911.03;5053694;28;1913;-64
2023/04/29 00:25:34;;;;;;;;;;;;;;;3.28;100.00;99915.06;5053596;28;818;-63
2023/04/29 00:31:05;;;;;;;;;;;;;;;2.78;100.00;99918.38;5051051;28;1112;-64
2023/04/29 00:33:32;;;;;;;;;;;;;;;2.61;100.00;99914.00;5053035;28;868;-63
2023/04/29 00:35:58;;;;;;;;;;;;;;;2.48;100.00;99912.47;5053507;28;818;-64
2023/04/29 00:38:25;;;;;;;;;;;;;;;2.43;100.00;99910.75;5053479;28;806;-63
2023/04/29 00:40:52;;;;;;;;;;;;;;;2.42;100.00;99923.59;5053389;28;810;-65
2023/04/29 00:43:19;;;;;;;;;;;;;;;2.54;100.00;99920.06;5053415;28;1886;-64
2023/04/29 00:45:45;;;;;;;;;;;;;;;2.59;100.00;99919.81;5053306;28;822;-63
2023/04/29 00:48:14;;;;;;;;;;;;;;;2.64;100.00;99910.56;5053243;28;826;-63
2023/04/29 00:50:41;;;;;;;;;;;;;;;2.66;100.00;99906.34;5053295;28;814;-63
2023/04/29 00:53:08;;;;;;;;;;;;;;;2.64;100.00;99910.56;5053073;28;842;-65
2023/04/29 00:55:36;;;;;;;;;;;;;;;2.61;100.00;99912.06;5053167;28;850;-63
2023/04/29 00:58:03;;;;;;;;;;;;;;;2.58;100.00;99920.97;5053122;28;779;-64
2023/04/29 01:00:29;;;;;;;;;;;;;;;2.49;100.00;99905.84;5053061;28;840;-63
2023/04/29 01:02:56;;;;;;;;;;;;;;;2.45;100.00;99908.47;5052988;28;830;-63
2023/04/29 01:05:23;;;;;;;;;;;;;;;2.56;100.00;99911.50;5052939;28;1949;-65
2023/04/29 01:08:19;;;;;;;;;;;;;;;2.56;100.00;99914.22;5053163;28;1000;-64
2023/04/29 01:10:54;;;;;;;;;;;;;;;2.50;100.00;99910.97;5010588;28;1279;-63
2023/04/29 01:13:33;;;;;;;;;;;;;;;2.56;100.00;99904.13;5010939;28;1287;-65
2023/04/29 01:16:10;;;;;;;;;;;;;;;2.53;100.00;99896.63;5010905;28;1039;-63
2023/04/29 01:18:40;;;;;;;;;;;;;;;2.48;100.00;99907.00;5010939;28;878;-65
2023/04/29 01:21:06;;;;;;;;;;;;;;;2.46;100.00;99904.63;5010789;28;905;-65
2023/04/29 01:23:33;;;;;;;;;;;;;;;2.44;100.00;99898.72;5010939;28;1980;-63
2023/04/29 01:26:01;;;;;;;;;;;;;;;2.41;100.00;99900.19;4994222;28;1286;-64
2023/04/29 01:28:43;;;;;;;;;;;;;;;2.39;100.00;99899.75;5010744;28;1036;-64
2023/04/29 01:31:28;;;;;;;;;;;;;;;2.36;100.00;99907.81;5010658;28;823;-64
2023/04/29 01:33:54;;;;;;;;;;;;;;;2.38;100.00;99898.13;5010897;28;1262;-63
2023/04/29 01:36:39;;;;;;;;;;;;;;;2.53;100.00;99910.25;5010725;28;946;-64
2023/04/29 01:39:14;;;;;;;;;;;;;;;2.69;100.00;99909.53;5010491;28;860;-64
2023/04/29 01:42:05;;;;;;;;;;;;;;;2.77;100.00;99905.88;5010523;28;980;-63
2023/04/29 01:44:32;;;;;;;;;;;;;;;2.80;100.00;99905.19;4999517;28;1890;-64
2023/04/29 01:47:00;;;;;;;;;;;;;;;2.83;100.00;99907.22;5028645;28;910;-64
2023/04/29 01:49:27;;;;;;;;;;;;;;;2.78;100.00;99905.53;5052184;28;818;-65
2023/04/29 01:51:54;;;;;;;;;;;;;;;2.74;100.00;99901.91;5052086;28;861;-65
2023/04/29 01:54:21;;;;;;;;;;;;;;;2.85;100.00;99904.94;5051975;28;821;-65
2023/04/29 01:56:47;;;;;;;;;;;;;;;2.87;100.00;99897.19;5052008;28;870;-63
2023/04/29 01:59:14;;;;;;;;;;;;;;;2.86;100.00;99903.81;5050677;28;1326;-65
2023/04/29 02:01:40;;;;;;;;;;;;;;;2.78;100.00;99902.78;5052181;28;834;-64
2023/04/29 02:04:08;;;;;;;;;;;;;;;2.69;100.00;99898.63;5050562;28;1955;-64
2023/04/29 02:06:35;;;;;;;;;;;;;;;2.63;100.00;99898.88;5051787;28;905;-64
2023/04/29 02:09:02;;;;;;;;;;;;;;;2.60;100.00;99905.03;5051718;28;1307;-64
2023/04/29 02:11:28;;;;;;;;;;;;;;;2.56;100.00;99903.31;5051815;28;806;-65
2023/04/29 02:13:56;;;;;;;;;;;;;;;2.51;100.00;99903.56;5051769;28;901;-63
2023/04/29 02:16:23;;;;;;;;;;;;;;;2.51;100.00;99907.09;5051669;28;881;-63
2023/04/29 02:18:49;;;;;;;;;;;;;;;2.52;100.00;99908.69;5051691;28;819;-64
2023/04/29 02:21:15;;;;;;;;;;;;;;;2.51;100.00;99909.81;5051644;28;850;-63
2023/04/29 02:23:42;;;;;;;;;;;;;;;2.47;100.00;99903.47;5051470;28;1985;-63
2023/04/29 02:26:09;;;;;;;;;;;;;;;2.39;100.00;99893.47;5051562;28;795;-65
2023/04/29 02:28:36;;;;;;;;;;;;;;;2.34;100.00;99901.91;5051553;28;910;-64
2023/04/29 02:31:03;;;;;;;;;;;;;;;2.29;100.00;99896.69;5051556;28;874;-64
2023/04/29 02:33:30;;;;;;;;;;;;;;;2.15;100.00;99889.66;5051527;28;806;-66
2023/04/29 02:35:58;;;;;;;;;;;;;;;2.04;100.00;99892.06;5051513;28;873;-66
2023/04/29 02:38:25;;;;;;;;;;;;;;;1.94;100.00;99886.28;5051711;28;822;-65
2023/04/29 02:40:51;;;;;;;;;;;;;;;1.86;100.00;99887.19;5051481;28;806;-64
2023/04/29 02:43:18;;;;;;;;;;;;;;;1.79;100.00;99887.75;5051302;28;1893;-65
2023/04/29 02:45:45;;;;;;;;;;;;;;;1.69;100.00;99889.03;5051433;28;901;-66
2023/04/29 02:48:12;;;;;;;;;;;;;;;1.59;100.00;99882.09;5051426;28;838;-65
2023/04/29 02:50:38;;;;;;;;;;;;;;;1.58;100.00;99882.41;5051256;28;874;-64
2023/04/29 02:53:05;;;;;;;;;;;;;;;1.57;100.00;99880.84;5051235;28;896;-63
2023/04/29 02:55:31;;;;;;;;;;;;;;;1.54;100.00;99881.53;5051376;28;915;-64
2023/04/29 02:57:58;;;;;;;;;;;;;;;2.01;100.00;99881.06;5055400;28;830;-65
2023/04/29 03:00:24;;;;;;;;;;;;;;;2.89;100.00;99886.72;5055342;28;869;-64
2023/04/29 03:02:52;;;;;;;;;;;;;;;3.63;100.00;99876.13;5055482;28;873;-65
2023/04/29 03:05:18;;;;;;;;;;;;;;;4.21;100.00;99883.69;5055434;28;1949;-65
2023/04/29 03:07:45;;;;;;;;;;;;;;;4.55;100.00;99881.28;5055216;28;886;-66
2023/04/29 03:10:12;;;;;;;;;;;;;;;4.78;100.00;99884.09;5054992;28;1381;-66
2023/04/29 03:12:38;;;;;;;;;;;;;;;4.99;100.00;99888.38;5055156;28;850;-64
2023/04/29 03:15:06;;;;;;;;;;;;;;;5.07;100.00;99885.41;5055224;28;846;-64
2023/04/29 03:17:34;;;;;;;;;;;;;;;5.06;100.00;99886.59;5054980;28;818;-63
2023/04/29 03:20:00;;;;;;;;;;;;;;;5.06;100.00;99889.31;5055059;28;861;-64
2023/04/29 03:22:27;;;;;;;;;;;;;;;5.06;100.00;99889.31;5054845;28;893;-64
2023/04/29 03:24:54;;;;;;;;;;;;;;;5.08;100.00;99888.97;5054752;28;1907;-65
2023/04/29 03:27:21;;;;;;;;;;;;;;;5.06;100.00;99892.06;5054966;28;889;-66
2023/04/29 03:29:48;;;;;;;;;;;;;;;5.00;100.00;99890.78;5054872;28;830;-65
2023/04/29 03:32:15;;;;;;;;;;;;;;;5.07;100.00;99892.84;5055028;28;831;-65
2023/04/29 03:34:41;;;;;;;;;;;;;;;5.13;100.00;99890.63;5054758;28;858;-64
2023/04/29 03:37:08;;;;;;;;;;;;;;;5.23;100.00;99887.28;5054777;28;866;-64
2023/04/29 03:39:35;;;;;;;;;;;;;;;5.06;100.00;99858.41;5054759;28;897;-64
2023/04/29 03:42:01;;;;;;;;;;;;;;;5.38;100.00;99900.06;5054735;28;845;-66
2023/04/29 03:44:28;;;;;;;;;;;;;;;5.44;100.00;99901.38;5054899;28;1953;-65
2023/04/29 03:46:55;;;;;;;;;;;;;;;5.51;100.00;99903.44;5054797;28;806;-65
2023/04/29 03:49:22;;;;;;;;;;;;;;;5.61;100.00;99907.50;5054638;28;858;-65
2023/04/29 03:51:49;;;;;;;;;;;;;;;5.68;100.00;99902.94;5054499;28;814;-65
2023/04/29 03:54:16;;;;;;;;;;;;;;;5.81;100.00;99911.75;5054587;28;802;-65
2023/04/29 03:56:43;;;;;;;;;;;;;;;5.89;100.00;99907.97;5054555;28;810;-65
2023/04/29 03:59:10;;;;;;;;;;;;;;;5.92;100.00;99915.44;5054428;28;864;-63
2023/04/29 04:01:36;;;;;;;;;;;;;;;5.97;100.00;99910.84;5054674;28;830;-64
2023/04/29 04:04:03;;;;;;;;;;;;;;;6.01;100.00;99917.19;5054785;28;1883;-65
2023/04/29 04:06:30;;;;;;;;;;;;;;;6.10;100.00;99910.28;5054342;28;822;-66
2023/04/29 04:08:57;;;;;;;;;;;;;;;6.27;100.00;99913.63;5052038;28;1359;-65
2023/04/29 04:11:46;;;;;;;;;;;;;;;6.45;100.00;99903.72;5054345;28;862;-65
2023/04/29 04:14:12;;;;;;;;;;;;;;;6.66;100.00;99908.69;5054540;28;739;-65
2023/04/29 04:16:39;;;;;;;;;;;;;;;6.81;100.00;99914.38;5054609;28;767;-65
2023/04/29 04:19:09;;;;;;;;;;;;;;;6.98;100.00;99908.28;5054241;28;763;-64
2023/04/29 04:21:36;;;;;;;;;;;;;;;7.21;100.00;99921.06;5053721;28;916;-65
2023/04/29 04:24:03;;;;;;;;;;;;;;;7.42;100.00;99915.00;5053721;28;2054;-65
2023/04/29 04:26:30;;;;;;;;;;;;;;;7.85;100.00;99913.44;5052435;28;1334;-65
2023/04/29 04:28:55;;;;;;;;;;;;;;;8.27;98.91;99908.59;5052332;28;1275;-65
2023/04/29 04:31:22;;;;;;;;;;;;;;;8.56;97.45;99901.31;5053991;28;882;-65
2023/04/29 04:33:49;;;;;;;;;;;;;;;8.60;94.71;99913.16;5053852;28;870;-65
2023/04/29 04:36:14;;;;;;;;;;;;;;;8.65;89.93;99910.00;5052443;28;1231;-64
2023/04/29 04:38:41;;;;;;;;;;;;;;;8.81;86.80;99908.88;5053785;28;818;-64
2023/04/29 04:41:08;;;;;;;;;;;;;;;8.93;87.34;99912.09;5053491;28;869;-63
2023/04/29 04:43:34;;;;;;;;;;;;;;;8.98;87.85;99908.97;5053275;28;1957;-64
2023/04/29 04:46:08;;;;;;;;;;;;;;;9.08;88.21;99910.16;5052094;28;1243;-64
2023/04/29 04:48:35;;;;;;;;;;;;;;;9.18;88.19;99909.41;5053379;28;992;-65
2023/04/29 04:51:08;;;;;;;;;;;;;;;9.29;87.84;99911.41;5053185;28;898;-65
2023/04/29 04:53:35;;;;;;;;;;;;;;;9.39;85.72;99913.41;5053217;28;869;-64
2023/04/29 04:56:02;;;;;;;;;;;;;;;9.45;83.57;99909.06;5053161;28;900;-64
2023/04/29 04:58:30;;;;;;;;;;;;;;;9.58;84.39;99909.47;5053148;28;854;-64
2023/04/29 05:00:57;;;;;;;;;;;;;;;9.71;83.99;99907.91;5053035;28;853;-64
2023/04/29 05:03:23;;;;;;;;;;;;;;;9.81;81.45;99909.06;5053016;28;1882;-64
2023/04/29 05:05:56;;;;;;;;;;;;;;;9.91;77.36;99902.00;5052947;28;920;-65
2023/04/29 05:08:23;;;;;;;;;;;;;;;10.40;79.50;99903.91;5053114;28;934;-64
2023/04/29 05:10:50;;;;;;;;;;;;;;;10.72;76.79;99903.00;5052663;28;1220;-64
2023/04/29 05:13:17;;;;;;;;;;;;;;;10.94;75.42;99900.94;5052782;28;810;-65
2023/04/29 05:15:44;;;;;;;;;;;;;;;11.35;74.55;99899.53;5052843;28;994;-64
2023/04/29 05:18:11;;;;;;;;;;;;;;;12.03;69.53;99908.13;5052684;28;794;-64
2023/04/29 05:20:38;;;;;;;;;;;;;;;12.61;65.28;99896.44;5052805;28;868;-64
2023/04/29 05:23:07;;;;;;;;;;;;;;;12.98;64.23;99905.91;5052611;28;849;-64
2023/04/29 05:25:34;;;;;;;;;;;;;;;12.74;60.87;99900.25;5052504;28;1971;-64
2023/04/29 05:28:02;;;;;;;;;;;;;;;12.34;63.39;99899.91;5052568;28;799;-65
2023/04/29 05:30:28;;;;;;;;;;;;;;;12.33;65.72;99909.44;5052520;28;865;-65
2023/04/29 05:32:55;;;;;;;;;;;;;;;12.16;63.70;99904.84;5052422;28;839;-63
2023/04/29 05:35:21;;;;;;;;;;;;;;;11.87;63.17;99909.84;5052423;28;883;-64
2023/04/29 05:37:48;;;;;;;;;;;;;;;11.63;63.92;99910.41;5052308;28;909;-64
2023/04/29 05:40:14;;;;;;;;;;;;;;;11.36;65.23;99906.66;5067674;28;1391;-64
2023/04/29 05:42:41;;;;;;;;;;;;;;;11.33;65.21;99904.66;5052423;28;892;-64
2023/04/29 05:45:08;;;;;;;;;;;;;;;11.29;59.45;99903.91;5052325;28;1890;-64
2023/04/29 05:47:36;;;;;;;;;;;;;;;11.11;58.93;99893.72;5052244;28;822;-63
2023/04/29 05:50:03;;;;;;;;;;;;;;;11.23;59.04;99901.56;5050730;28;1423;-64
2023/04/29 05:52:29;;;;;;;;;;;;;;;11.23;57.36;99896.03;5052144;28;866;-65
2023/04/29 05:54:56;;;;;;;;;;;;;;;11.20;57.54;99894.09;5051999;28;814;-65
2023/04/29 05:57:23;;;;;;;;;;;;;;;11.29;57.55;99901.94;5052051;28;806;-64
2023/04/29 05:59:50;;;;;;;;;;;;;;;11.31;57.67;99891.25;5051895;28;815;-64
2023/04/29 06:02:17;;;;;;;;;;;;;;;11.42;58.00;99893.97;5051943;28;791;-63
2023/04/29 06:04:46;;;;;;;;;;;;;;;11.65;57.06;99893.41;5051786;28;2028;-64
2023/04/29 06:07:13;;;;;;;;;;;;;;;12.16;57.71;99891.78;5051867;28;905;-64
2023/04/29 06:09:40;;;;;;;;;;;;;;;12.93;53.63;99892.47;5051682;28;1233;-65
2023/04/29 06:12:07;;;;;;;;;;;;;;;13.83;51.14;99889.19;5051703;28;819;-65
2023/04/29 06:14:34;;;;;;;;;;;;;;;14.40;46.19;99896.53;5051735;28;846;-65
2023/04/29 06:17:00;;;;;;;;;;;;;;;15.51;44.89;99896.16;5051692;28;795;-64
2023/04/29 06:19:27;;;;;;;;;;;;;;;16.61;40.15;99891.00;5051571;28;861;-64
2023/04/29 06:21:54;;;;;;;;;;;;;;;16.89;39.12;99889.41;5051655;28;568;-65
2023/04/29 06:24:21;;;;;;;;;;;;;;;17.12;39.07;99894.69;5051576;28;1910;-65
2023/04/29 06:26:48;;;;;;;;;;;;;;;17.58;37.86;99894.50;5050221;28;1320;-65
2023/04/29 06:29:15;;;;;;;;;;;;;;;18.10;36.92;99882.00;5051607;28;815;-64
2023/04/29 06:31:42;;;;;;;;;;;;;;;17.67;35.84;99877.03;5051093;28;877;-64
2023/04/29 06:34:09;;;;;;;;;;;;;;;16.70;35.99;99885.53;5051463;28;814;-64
2023/04/29 06:36:37;;;;;;;;;;;;;;;16.13;37.64;99891.47;5051460;28;896;-63
2023/04/29 06:39:04;;;;;;;;;;;;;;;16.39;37.99;99891.59;5051426;28;857;-63
2023/04/29 06:41:31;;;;;;;;;;;;;;;16.94;36.77;99892.44;5051447;28;896;-63
2023/04/29 06:43:57;;;;;;;;;;;;;;;16.43;36.37;99891.47;5051316;28;1885;-64
2023/04/29 06:46:24;;;;;;;;;;;;;;;16.29;37.73;99887.84;5051551;28;825;-64
2023/04/29 06:48:50;;;;;;;;;;;;;;;15.89;41.27;99899.25;5051207;28;858;-65
2023/04/29 06:51:17;;;;;;;;;;;;;;;15.35;40.69;99888.59;5051565;28;810;-65
2023/04/29 06:53:43;;;;;;;;;;;;;;;14.78;42.09;99889.84;5051357;28;822;-66
2023/04/29 06:56:10;;;;;;;;;;;;;;;14.82;42.13;99882.97;5051318;28;810;-66
2023/04/29 06:58:37;;;;;;;;;;;;;;;14.73;43.00;99877.22;5051285;28;834;-66
2023/04/29 07:01:03;;;;;;;;;;;;;;;14.89;40.48;99882.84;5051270;28;904;-65
2023/04/29 07:03:29;;;;;;;;;;;;;;;14.88;39.79;99889.59;5051136;28;1941;-64
2023/04/29 07:05:56;;;;;;;;;;;;;;;15.24;39.65;99880.47;5051491;28;869;-64
2023/04/29 07:08:23;;;;;;;;;;;;;;;16.08;39.65;99882.84;5051116;28;954;-65
2023/04/29 07:10:55;;;;;;;;;;;;;;;16.80;37.71;99881.69;5050924;28;1324;-65
2023/04/29 07:13:22;;;;;;;;;;;;;;;17.47;36.33;99882.84;5051085;28;802;-66
2023/04/29 07:16:07;;;;;;;;;;;;;;;18.19;37.31;99869.31;5051085;28;868;-66
2023/04/29 07:18:34;;;;;;;;;;;;;;;18.73;35.28;99871.75;5051112;28;802;-66
2023/04/29 07:21:03;;;;;;;;;;;;;;;18.88;32.89;99874.03;5049763;28;1191;-66
2023/04/29 07:23:30;;;;;;;;;;;;;;;18.87;33.32;99870.44;5051007;28;1973;-66
2023/04/29 07:25:57;;;;;;;;;;;;;;;19.58;32.49;99872.44;5050919;28;809;-65
2023/04/29 07:28:23;;;;;;;;;;;;;;;19.74;32.76;99868.66;5051096;28;810;-66
2023/04/29 07:30:50;;;;;;;;;;;;;;;20.23;31.60;99861.38;5051128;28;889;-66
2023/04/29 07:33:17;;;;;;;;;;;;;;;19.20;32.50;99864.38;5050899;28;815;-66
2023/04/29 07:35:44;;;;;;;;;;;;;;;18.16;32.25;99871.78;5049610;28;1204;-66
2023/04/29 07:38:11;;;;;;;;;;;;;;;17.79;36.06;99864.25;5050864;28;799;-65
2023/04/29 07:40:38;;;;;;;;;;;;;;;18.56;33.97;99882.38;5050863;28;822;-64
2023/04/29 07:43:05;;;;;;;;;;;;;;;19.29;33.06;99878.44;5050473;28;1268;-65
2023/04/29 07:45:32;;;;;;;;;;;;;;;19.57;33.29;99870.91;5054379;28;1890;-65
2023/04/29 07:47:58;;;;;;;;;;;;;;;19.74;33.05;99865.84;5054306;28;795;-66
2023/04/29 07:50:25;;;;;;;;;;;;;;;19.98;32.03;99870.84;5054446;28;834;-65
2023/04/29 07:52:51;;;;;;;;;;;;;;;19.83;32.50;99869.91;5054402;28;818;-63
2023/04/29 07:55:16;;;;;;;;;;;;;;;18.81;33.02;99869.47;5054323;28;872;-64
2023/04/29 07:57:43;;;;;;;;;;;;;;;18.15;34.47;99858.25;5054473;28;795;-65
2023/04/29 08:00:10;;;;;;;;;;;;;;;18.83;36.85;99855.81;5054276;28;921;-66
2023/04/29 08:02:37;;;;;;;;;;;;;;;19.65;32.51;99860.19;5054146;28;872;-65
2023/04/29 08:05:04;;;;;;;;;;;;;;;19.04;31.44;99865.41;5054129;28;1910;-65
2023/04/29 08:07:31;;;;;;;;;;;;;;;18.37;32.32;99863.88;5054006;28;891;-66
2023/04/29 08:09:58;;;;;;;;;;;;;;;18.43;34.17;99855.66;5052406;28;1376;-65
2023/04/29 08:12:25;;;;;;;;;;;;;;;18.23;33.75;99847.59;5053973;28;893;-65
2023/04/29 08:14:51;;;;;;;;;;;;;;;19.18;33.72;99847.25;5054293;28;807;-65
2023/04/29 08:17:17;;;;;;;;;;;;;;;18.94;33.68;99839.38;5053778;28;798;-65
2023/04/29 08:19:44;;;;;;;;;;;;;;;19.06;33.04;99823.72;5053916;28;823;-64
2023/04/29 08:22:12;;;;;;;;;;;;;;;18.98;33.27;99828.03;5053828;28;897;-66
2023/04/29 08:24:41;;;;;;;;;;;;;;;18.71;35.04;99825.84;5052336;28;1915;-66
2023/04/29 08:27:08;;;;;;;;;;;;;;;19.37;34.68;99820.06;5053720;28;826;-66
2023/04/29 08:29:35;;;;;;;;;;;;;;;19.02;34.43;99825.88;5053600;28;854;-66
2023/04/29 08:32:01;;;;;;;;;;;;;;;17.80;34.84;99821.88;5053741;28;858;-66
2023/04/29 08:34:27;;;;;;;;;;;;;;;17.86;34.51;99822.91;5053604;28;811;-67
2023/04/29 08:36:56;;;;;;;;;;;;;;;18.11;34.17;99821.22;5053526;28;842;-66
2023/04/29 08:39:23;;;;;;;;;;;;;;;18.78;35.03;99808.81;5068919;28;1171;-66
2023/04/29 08:41:50;;;;;;;;;;;;;;;18.23;34.32;99811.25;5053692;28;866;-66
2023/04/29 08:44:17;;;;;;;;;;;;;;;18.27;35.15;99817.50;5053343;28;1948;-67
2023/04/29 08:46:47;;;;;;;;;;;;;;;18.44;32.93;99804.84;5053246;28;873;-67
2023/04/29 08:49:14;;;;;;;;;;;;;;;18.37;32.70;99802.34;5053369;28;814;-68
2023/04/29 08:51:41;;;;;;;;;;;;;;;17.68;34.18;99801.09;5053260;28;818;-67
2023/04/29 08:54:08;;;;;;;;;;;;;;;17.43;35.53;99803.97;5052960;28;799;-66
2023/04/29 08:56:36;;;;;;;;;;;;;;;17.84;34.83;99800.22;5051834;28;1180;-66
2023/04/29 08:59:08;;;;;;;;;;;;;;;17.84;35.83;99799.44;5053218;28;846;-65
2023/04/29 09:01:35;;;;;;;;;;;;;;;17.84;36.96;99800.22;5053266;28;814;-67
2023/04/29 09:04:15;;;;;;;;;;;;;;;18.27;35.15;99793.09;5053047;28;1913;-65
2023/04/29 09:09:46;;;;;;;;;;;;;;;18.69;32.27;99789.13;5049712;28;1386;-65
2023/04/29 09:12:13;;;;;;;;;;;;;;;18.43;34.39;99794.88;5052890;28;814;-65
2023/04/29 09:14:39;;;;;;;;;;;;;;;18.33;35.25;99784.88;5052772;28;529;-66
2023/04/29 09:20:29;;;;;;;;;;;;;;;18.13;35.52;99780.38;5052767;28;677;-67
2023/04/29 09:22:56;;;;;;;;;;;;;;;18.16;35.86;99778.72;5052777;28;837;-67
2023/04/29 09:25:23;;;;;;;;;;;;;;;17.87;35.32;99784.53;5052759;28;1969;-66
2023/04/29 09:27:50;;;;;;;;;;;;;;;17.50;35.87;99773.00;5052727;28;846;-66
2023/04/29 09:30:18;;;;;;;;;;;;;;;17.69;37.37;99765.56;5052671;28;941;-68
2023/04/29 09:32:46;;;;;;;;;;;;;;;17.43;36.12;99757.25;5052497;28;815;-67
2023/04/29 09:35:21;;;;;;;;;;;;;;;17.71;37.43;99758.28;5051142;28;1191;-67
2023/04/29 09:37:48;;;;;;;;;;;;;;;18.09;38.30;99751.78;5052398;28;819;-67
2023/04/29 10:11:54;;;;;;;;;;;;;;;18.22;36.60;99718.16;5012331;28;652;-56
2023/04/29 10:14:24;;;;;;;;;;;;;;;18.45;35.65;99719.66;5012238;28;928;-56
2023/04/29 10:16:51;;;;;;;;;;;;;;;18.22;36.95;99714.56;5012079;28;858;-56
2023/04/29 10:19:25;;;;;;;;;;;;;;;17.95;36.94;99727.91;5012241;28;818;-56
2023/04/29 10:21:52;;;;;;;;;;;;;;;17.92;37.11;99706.47;5012059;28;924;-56
2023/04/29 10:24:21;;;;;;;;;;;;;;;17.85;36.49;99708.72;5011909;28;1910;-56
2023/04/29 10:26:55;;;;;;;;;;;;;;;17.97;36.95;99707.88;5011991;28;1182;-56
2023/04/29 10:29:22;;;;;;;;;;;;;;;17.90;36.27;99705.34;5010757;28;1322;-56
2023/04/29 10:31:50;;;;;;;;;;;;;;;18.30;37.43;99693.47;5011858;28;803;-55
2023/04/29 10:34:17;;;;;;;;;;;;;;;18.17;36.39;99699.91;5011902;28;945;-56
2023/04/29 10:36:45;;;;;;;;;;;;;;;18.14;37.78;99692.47;5011866;28;807;-56
2023/04/29 10:39:19;;;;;;;;;;;;;;;18.41;37.30;99688.22;5011825;28;898;-56
2023/04/29 10:41:47;;;;;;;;;;;;;;;18.59;35.19;99690.34;5011827;28;873;-56
2023/04/29 10:44:14;;;;;;;;;;;;;;;18.01;33.71;99682.56;5012035;28;1914;-56
2023/04/29 10:46:40;;;;;;;;;;;;;;;18.34;35.43;99685.72;5010429;28;1282;-56
2023/04/29 10:49:09;;;;;;;;;;;;;;;18.29;37.07;99684.31;5011747;28;827;-56
2023/04/29 10:51:43;;;;;;;;;;;;;;;18.18;33.92;99686.75;5011774;28;827;-57
2023/04/29 10:54:14;;;;;;;;;;;;;;;17.88;35.75;99691.84;5011604;28;844;-56
2023/04/29 10:56:42;;;;;;;;;;;;;;;18.16;34.15;99692.00;5011995;28;921;-57
2023/04/29 10:59:15;;;;;;;;;;;;;;;18.39;34.68;99687.91;5011661;28;929;-56
2023/04/29 11:01:42;;;;;;;;;;;;;;;18.93;35.85;99692.19;5011678;28;886;-56
2023/04/29 11:04:09;;;;;;;;;;;;;;;19.28;35.32;99683.53;5011575;28;1894;-56
2023/04/29 11:06:36;;;;;;;;;;;;;;;19.90;34.55;99670.47;5011629;28;850;-56
2023/04/29 11:09:06;;;;;;;;;;;;;;;20.10;32.98;99679.16;5011869;28;965;-57
2023/04/29 11:11:43;;;;;;;;;;;;;;;19.76;33.41;99678.28;5011616;28;858;-56
2023/04/29 11:14:11;;;;;;;;;;;;;;;20.20;34.88;99665.88;5011530;28;849;-56
2023/04/29 11:16:46;;;;;;;;;;;;;;;21.18;34.13;99663.53;5011644;28;890;-56
2023/04/29 11:19:14;;;;;;;;;;;;;;;21.74;32.65;99647.03;5015352;28;890;-56
2023/04/29 11:21:41;;;;;;;;;;;;;;;21.79;32.95;99649.16;5015257;28;870;-56
2023/04/29 11:24:08;;;;;;;;;;;;;;;21.89;32.12;99655.47;5015143;28;1900;-56
2023/04/29 11:26:35;;;;;;;;;;;;;;;21.72;31.53;99648.75;5015152;28;834;-56
2023/04/29 11:29:01;;;;;;;;;;;;;;;21.55;31.79;99642.81;5015210;28;874;-56
2023/04/29 11:31:30;;;;;;;;;;;;;;;21.66;31.83;99653.50;5014995;28;862;-56
2023/04/29 11:33:59;;;;;;;;;;;;;;;21.57;31.40;99649.53;5015311;28;960;-56
2023/04/29 11:36:27;;;;;;;;;;;;;;;21.95;31.95;99644.31;5014966;28;877;-56
2023/04/29 11:38:54;;;;;;;;;;;;;;;22.00;30.68;99647.22;5014826;28;815;-56
2023/04/29 11:41:22;;;;;;;;;;;;;;;21.91;29.56;99652.97;5015228;28;843;-56
2023/04/29 11:43:57;;;;;;;;;;;;;;;21.10;28.90;99642.69;5014792;28;1894;-56
2023/04/29 11:46:27;;;;;;;;;;;;;;;20.76;30.99;99644.78;5015297;28;771;-56
2023/04/29 11:48:54;;;;;;;;;;;;;;;21.25;30.07;99634.31;5014871;28;889;-58
2023/04/29 11:51:21;;;;;;;;;;;;;;;20.95;28.57;99631.41;5014763;28;806;-56
2023/04/29 11:53:48;;;;;;;;;;;;;;;20.96;30.17;99638.56;5014943;28;850;-56
2023/04/29 11:56:27;;;;;;;;;;;;;;;21.07;29.97;99629.59;5014664;28;850;-57
2023/04/29 11:58:56;;;;;;;;;;;;;;;21.44;29.67;99623.69;5014516;28;1015;-56
2023/04/29 12:01:24;;;;;;;;;;;;;;;22.01;29.03;99615.00;5014540;28;868;-56
2023/04/29 12:03:50;;;;;;;;;;;;;;;22.75;28.47;99611.28;5014441;28;1950;-56
2023/04/29 12:06:17;;;;;;;;;;;;;;;22.84;28.36;99602.69;5014477;28;795;-57
2023/04/29 12:08:45;;;;;;;;;;;;;;;23.87;28.07;99604.63;5014512;28;903;-56
2023/04/29 12:11:13;;;;;;;;;;;;;;;22.53;28.65;99600.50;5031129;28;1431;-57
2023/04/29 12:13:40;;;;;;;;;;;;;;;22.53;28.05;99608.94;5034060;28;845;-57
2023/04/29 12:16:07;;;;;;;;;;;;;;;22.46;27.79;99600.13;5034010;28;842;-56
2023/04/29 12:18:34;;;;;;;;;;;;;;;22.20;27.63;99604.31;5034014;28;802;-57
2023/04/29 12:21:01;;;;;;;;;;;;;;;22.33;28.18;99594.81;5033943;28;969;-57
2023/04/29 12:23:28;;;;;;;;;;;;;;;21.67;27.81;99601.63;5033893;28;814;-57
2023/04/29 12:25:56;;;;;;;;;;;;;;;21.70;28.30;99600.66;5033892;28;893;-56
2023/04/29 12:28:23;;;;;;;;;;;;;;;22.14;28.19;99592.19;5033260;28;838;-56
2023/04/29 12:30:52;;;;;;;;;;;;;;;21.96;28.00;99583.97;5033643;28;791;-57
2023/04/29 12:33:22;;;;;;;;;;;;;;;21.58;29.08;99591.25;5034000;28;893;-56
2023/04/29 12:35:50;;;;;;;;;;;;;;;21.94;28.32;99598.53;5033653;28;814;-56
2023/04/29 12:38:36;;;;;;;;;;;;;;;22.46;27.27;99589.63;5032256;28;916;-56
2023/04/29 12:41:06;;;;;;;;;;;;;;;22.90;26.95;99571.00;5033474;28;1634;-57
2023/04/29 12:43:33;;;;;;;;;;;;;;;23.39;27.37;99578.50;5033616;28;1981;-56
2023/04/29 12:46:01;;;;;;;;;;;;;;;23.05;27.21;99570.97;5033479;28;850;-56
2023/04/29 12:48:31;;;;;;;;;;;;;;;21.78;26.89;99574.47;5033428;28;913;-56
2023/04/29 12:50:59;;;;;;;;;;;;;;;21.87;28.87;99570.78;5033409;28;842;-56
2023/04/29 12:53:26;;;;;;;;;;;;;;;22.35;28.52;99558.50;5032083;28;1311;-56
2023/04/29 12:55:52;;;;;;;;;;;;;;;22.81;27.98;99566.28;5033401;28;799;-56
2023/04/29 12:58:19;;;;;;;;;;;;;;;22.32;27.49;99557.44;5015489;28;1400;-56
2023/04/29 13:00:46;;;;;;;;;;;;;;;21.87;29.48;99559.53;5033222;28;921;-56
2023/04/29 13:03:13;;;;;;;;;;;;;;;21.89;27.99;99554.19;5033441;28;806;-56
2023/04/29 13:05:39;;;;;;;;;;;;;;;22.57;28.02;99552.38;5033035;28;1878;-56
2023/04/29 13:08:07;;;;;;;;;;;;;;;22.24;27.43;99547.84;5032940;28;969;-56
2023/04/29 13:10:34;;;;;;;;;;;;;;;21.77;28.58;99553.22;5032855;28;1218;-57
2023/04/29 13:13:01;;;;;;;;;;;;;;;22.09;26.95;99547.84;5033118;28;857;-56
2023/04/29 13:15:27;;;;;;;;;;;;;;;22.83;27.00;99546.84;5033184;28;818;-57
2023/04/29 13:17:54;;;;;;;;;;;;;;;23.22;27.17;99547.31;5032860;28;806;-56
2023/04/29 13:20:21;;;;;;;;;;;;;;;23.71;27.24;99541.13;5032832;28;858;-56
2023/04/29 13:22:47;;;;;;;;;;;;;;;24.20;26.97;99527.91;5032771;28;869;-57
2023/04/29 13:25:15;;;;;;;;;;;;;;;23.53;28.69;99545.81;5032628;28;1957;-57
2023/04/29 13:27:42;;;;;;;;;;;;;;;22.61;28.72;99538.88;5032682;28;866;-56
2023/04/29 13:30:09;;;;;;;;;;;;;;;21.72;28.93;99541.88;5032853;28;1033;-56
2023/04/29 13:32:38;;;;;;;;;;;;;;;21.30;28.96;99540.88;5032885;28;834;-56
2023/04/29 13:35:05;;;;;;;;;;;;;;;21.29;28.78;99530.88;5032534;28;940;-56
2023/04/29 13:37:32;;;;;;;;;;;;;;;20.88;29.88;99530.63;5032368;28;889;-56
2023/04/29 13:39:59;;;;;;;;;;;;;;;20.46;30.17;99523.09;5032209;28;795;-56
2023/04/29 13:42:26;;;;;;;;;;;;;;;20.49;30.41;99512.94;5031850;28;870;-56
2023/04/29 13:44:56;;;;;;;;;;;;;;;20.27;31.60;99522.44;5032373;28;1902;-56
2023/04/29 13:47:22;;;;;;;;;;;;;;;20.59;31.13;99523.66;5032265;28;953;-56
2023/04/29 13:49:57;;;;;;;;;;;;;;;20.93;30.22;99517.94;5032368;28;874;-56